»·PEaware :: SWA280 KSLC-KDEN

SWA280 :: KSLC-KDEN

FLIGHT INFORMATION

Flight Status: Arrived
Operator:
Southwest Airlines
More flights by this operator :: More flights under this callsign
Pilot: Ion I. (24133)
Aircraft: BOEING 737-800
(B738)
More flights by this aircraft type
Origin: KSLC Salt Lake City Intl
United States
Destination: KDEN Denver Intl
United States
More flights between these airports :: More routes between these airports
Route: RUGGD1 PERTY KAMPR LONGZ1
File this flight plan on PilotEdge
Remarks:
Altitude:
(Current/Filed)
37,000ft
Speed:
(Current/Filed)
460kts
Departed: 15-Mar-21 01:04 PM
Arrived: 15-Mar-21 02:07 PM
Distance/Time
Traveled:
339nm/1:03
Distance/Time
To Go:
Arrived

Flight Plot

Page will automatically refresh every two minutes.

Flight plan parsing failed; only flown route is shown


Map Options




Map Legend


Flown Route
Filed Route
Departure Airport
Arrival Airport
Navaid (VOR, NDB)
Fix

Horizontal Profiles

Position Reports

Time Latitude Longitude Heading Altitude Ground
Speed
15-Mar-21 12:31 40.788553 -111.977913 266 4235ft 0kts
15-Mar-21 12:32 40.788553 -111.977913 266 4235ft 0kts
15-Mar-21 12:33 40.788553 -111.977913 266 4235ft 0kts
15-Mar-21 12:34 40.788553 -111.977913 266 4235ft 0kts
15-Mar-21 12:35 40.788553 -111.977913 266 4235ft 0kts
15-Mar-21 12:36 40.788553 -111.977913 266 4235ft 0kts
15-Mar-21 12:37 40.788553 -111.977913 266 4235ft 0kts
15-Mar-21 12:38 40.788553 -111.977913 266 4235ft 0kts
15-Mar-21 12:39 40.788553 -111.977913 266 4235ft 0kts
15-Mar-21 12:40 40.788553 -111.977913 266 4235ft 0kts
15-Mar-21 12:41 40.788553 -111.977913 266 4235ft 0kts
15-Mar-21 12:42 40.788553 -111.977913 266 4235ft 0kts
15-Mar-21 12:43 40.788553 -111.977913 266 4235ft 0kts
15-Mar-21 12:44 40.788553 -111.977913 266 4235ft 0kts
15-Mar-21 12:45 40.788553 -111.977913 266 4235ft 0kts
15-Mar-21 12:46 40.788553 -111.977913 266 4235ft 0kts
15-Mar-21 12:47 40.788553 -111.977913 266 4235ft 0kts
15-Mar-21 12:48 40.788553 -111.977913 266 4235ft 0kts
15-Mar-21 12:49 40.788553 -111.977913 266 4235ft 0kts
15-Mar-21 12:50 40.788553 -111.977913 266 4235ft 0kts
15-Mar-21 12:51 40.788553 -111.977913 266 4235ft 0kts
15-Mar-21 12:52 40.788553 -111.977913 266 4235ft 0kts
15-Mar-21 12:53 40.788553 -111.977913 266 4235ft 0kts
15-Mar-21 12:54 40.788560 -111.977763 269 4235ft 2kts
15-Mar-21 12:55 40.788277 -111.976947 354 4235ft 2kts
15-Mar-21 12:56 40.788123 -111.976929 354 4235ft 0kts
15-Mar-21 12:57 40.788123 -111.976929 354 4235ft 0kts
15-Mar-21 12:58 40.788152 -111.976932 354 4235ft 2kts
15-Mar-21 12:59 40.793699 -111.977571 354 4235ft 21kts
15-Mar-21 13:00 40.799572 -111.978247 354 4235ft 25kts
15-Mar-21 13:01 40.805024 -111.978868 354 4235ft 11kts
15-Mar-21 13:02 40.807553 -111.977329 96 4235ft 10kts
15-Mar-21 13:03 40.787271 -111.974553 175 4241ft 165kts
15-Mar-21 13:04 40.754614 -112.008262 280 6263ft 229kts
15-Mar-21 13:05 40.792470 -112.074356 306 8842ft 245kts
15-Mar-21 13:06 40.838103 -112.152409 306 10914ft 275kts
15-Mar-21 13:07 40.886733 -112.232318 314 13260ft 286kts
15-Mar-21 13:08 40.960979 -112.227781 44 15520ft 300kts
15-Mar-21 13:09 41.004427 -112.131821 64 17782ft 313kts
15-Mar-21 13:10 41.044289 -112.027088 65 20033ft 323kts
15-Mar-21 13:11 41.083001 -111.918421 67 22286ft 326kts
15-Mar-21 13:12 41.122256 -111.800408 79 22793ft 382kts
15-Mar-21 13:13 41.083738 -111.670365 141 22801ft 415kts
15-Mar-21 13:14 41.005858 -111.556152 131 22786ft 419kts
15-Mar-21 13:15 40.932510 -111.436517 128 22790ft 420kts
15-Mar-21 13:16 40.895518 -111.288946 101 22805ft 431kts
15-Mar-21 13:17 40.877274 -111.132294 101 22813ft 431kts
15-Mar-21 13:18 40.858341 -110.976352 101 22829ft 431kts
15-Mar-21 13:19 40.839847 -110.819329 101 22846ft 432kts
15-Mar-21 13:20 40.820694 -110.662580 101 22851ft 432kts
15-Mar-21 13:21 40.801200 -110.505589 102 22866ft 432kts
15-Mar-21 13:22 40.781778 -110.347673 102 24159ft 441kts
15-Mar-21 13:23 40.760981 -110.186207 102 25694ft 451kts
15-Mar-21 13:25 40.740311 -110.021303 99 27156ft 459kts
15-Mar-21 13:26 40.729373 -109.851055 97 28364ft 469kts
15-Mar-21 13:27 40.717590 -109.679074 97 29548ft 474kts
15-Mar-21 13:28 40.705914 -109.505983 97 30989ft 472kts
15-Mar-21 13:29 40.694279 -109.334939 97 32301ft 469kts
15-Mar-21 13:30 40.681606 -109.164253 97 33575ft 466kts
15-Mar-21 13:31 40.669326 -108.994508 96 34656ft 466kts
15-Mar-21 13:32 40.658183 -108.824544 96 35579ft 468kts
15-Mar-21 13:33 40.646632 -108.653259 96 36430ft 471kts
15-Mar-21 13:34 40.635494 -108.480738 96 36881ft 475kts
15-Mar-21 13:35 40.623776 -108.308097 96 36882ft 474kts
15-Mar-21 13:36 40.611644 -108.135469 96 36880ft 474kts
15-Mar-21 13:37 40.599627 -107.962574 96 36889ft 475kts
15-Mar-21 13:38 40.586653 -107.789181 96 36893ft 476kts
15-Mar-21 13:39 40.573612 -107.616454 96 36897ft 476kts
15-Mar-21 13:40 40.560220 -107.443263 96 36901ft 476kts
15-Mar-21 13:41 40.546512 -107.269544 96 35976ft 475kts
15-Mar-21 13:42 40.533442 -107.096826 95 34977ft 475kts
15-Mar-21 13:43 40.519895 -106.923924 94 33979ft 476kts
15-Mar-21 13:44 40.505846 -106.750749 95 32531ft 477kts
15-Mar-21 13:45 40.491399 -106.580106 95 30482ft 462kts
15-Mar-21 13:46 40.477195 -106.414889 95 28571ft 450kts
15-Mar-21 13:46 40.464857 -106.280241 94 27013ft 443kts
15-Mar-21 13:48 40.448187 -106.094852 93 24838ft 433kts
15-Mar-21 13:49 40.434434 -105.939301 93 22992ft 425kts
15-Mar-21 13:50 40.412967 -105.787401 99 21122ft 421kts
15-Mar-21 13:51 40.388977 -105.638151 99 19346ft 415kts
15-Mar-21 13:51 40.369275 -105.514836 99 18107ft 413kts
15-Mar-21 13:52 40.346733 -105.375400 99 16836ft 370kts
15-Mar-21 13:53 40.329289 -105.246454 97 15686ft 353kts
15-Mar-21 13:55 40.309690 -105.102871 98 14390ft 325kts
15-Mar-21 13:56 40.295539 -105.000554 98 13474ft 299kts
15-Mar-21 13:56 40.283478 -104.913281 98 12646ft 290kts
15-Mar-21 13:57 40.269077 -104.808494 99 11495ft 291kts
15-Mar-21 13:58 40.242444 -104.716066 120 10742ft 263kts
15-Mar-21 13:59 40.187449 -104.682287 184 10042ft 237kts
15-Mar-21 14:00 40.124615 -104.684135 183 9891ft 211kts
15-Mar-21 14:01 40.070493 -104.685236 180 8735ft 186kts
15-Mar-21 14:02 40.021629 -104.685125 179 7828ft 170kts
15-Mar-21 14:03 39.974806 -104.685913 178 6930ft 168kts
15-Mar-21 14:04 39.927956 -104.686517 176 6061ft 163kts
15-Mar-21 14:05 39.885268 -104.686963 178 5439ft 138kts
15-Mar-21 14:06 39.866608 -104.687135 178 5439ft 35kts
15-Mar-21 14:07 39.864333 -104.686013 92 5439ft 7kts
15-Mar-21 14:08 39.864868 -104.680853 91 5439ft 15kts
15-Mar-21 14:09 39.863448 -104.679666 16 5439ft 14kts
15-Mar-21 14:10 39.864198 -104.673363 96 5439ft 10kts
15-Mar-21 14:11 39.863603 -104.673075 180 5439ft 0kts
15-Mar-21 14:12 39.863599 -104.673075 180 5439ft 0kts
15-Mar-21 14:13 39.863599 -104.673075 180 5439ft 0kts
15-Mar-21 14:14 39.863599 -104.673075 180 5439ft 0kts
15-Mar-21 14:15 39.863599 -104.673075 180 5439ft 0kts
15-Mar-21 14:16 39.863599 -104.673075 180 5439ft 0kts
15-Mar-21 14:17 39.863599 -104.673075 180 5439ft 0kts

Navigation Log

Ident Type
Flight plan parsing failed, navigation log unavailable